EZY68XU EGKK-LGKR
Flight info
| Callsign | EZY68XU |
|---|---|
| Flight time | 2h 49m |
| Altitude | 23000 |
| Route | DVR L9 KONAN/N0434F370 DCT KOK DCT RITAX DCT BANUX DCT BABEG DCT KUMOM DCT EVAXI DCT DARZA DCT UNIPA DCT VAKSU DCT RODON DCT LIMJA N732 PITAS |
| Aircraft | A320/M-SDE2E3FGHIJ1RWXYZ/LB1 |
Departure
| Time | 2026-05-05 14:02 |
|---|---|
| Airport | London Gatwick Airport (EGKK) |
Arrival
| Time | 2026-05-05 16:51 |
|---|---|
| Airport | Corfu Ioannis Kapodistrias International Airport (LGKR) |
| Time | Latitude | Longitude | Altitude | Speed | Heading |
|---|---|---|---|---|---|
| 2026-05-05 13:04 | 51.15562 | -0.17820 | 205 ft | 0 kts | 347° |
| 2026-05-05 13:49 | 51.15559 | -0.17819 | 213 ft | 3 kts | 347° |
| 2026-05-05 13:49 | 51.15540 | -0.17811 | 211 ft | 3 kts | 339° |
| 2026-05-05 13:49 | 51.15522 | -0.17797 | 212 ft | 3 kts | 323° |
| 2026-05-05 13:50 | 51.15508 | -0.17777 | 207 ft | 3 kts | 290° |
| 2026-05-05 13:50 | 51.15506 | -0.17755 | 213 ft | 1 kts | 257° |
| 2026-05-05 13:50 | 51.15506 | -0.17750 | 213 ft | 0 kts | 257° |
| 2026-05-05 13:54 | 51.15506 | -0.17755 | 205 ft | 1 kts | 257° |
| 2026-05-05 13:54 | 51.15500 | -0.17794 | 211 ft | 8 kts | 258° |
| 2026-05-05 13:54 | 51.15484 | -0.17917 | 209 ft | 13 kts | 257° |
| 2026-05-05 13:55 | 51.15464 | -0.18062 | 209 ft | 13 kts | 258° |
| 2026-05-05 13:55 | 51.15444 | -0.18205 | 213 ft | 13 kts | 257° |
| 2026-05-05 13:55 | 51.15401 | -0.18284 | 205 ft | 9 kts | 178° |
| 2026-05-05 13:55 | 51.15332 | -0.18261 | 205 ft | 13 kts | 167° |
| 2026-05-05 13:56 | 51.15240 | -0.18229 | 205 ft | 12 kts | 167° |
| 2026-05-05 13:56 | 51.15188 | -0.18283 | 216 ft | 10 kts | 261° |
| 2026-05-05 13:56 | 51.15176 | -0.18398 | 208 ft | 11 kts | 257° |
| 2026-05-05 13:56 | 51.15158 | -0.18535 | 210 ft | 17 kts | 258° |
| 2026-05-05 13:57 | 51.15131 | -0.18735 | 206 ft | 18 kts | 257° |
| 2026-05-05 13:57 | 51.15105 | -0.18924 | 205 ft | 17 kts | 258° |
| 2026-05-05 13:57 | 51.15082 | -0.19094 | 214 ft | 15 kts | 257° |
| 2026-05-05 13:57 | 51.15055 | -0.19291 | 212 ft | 20 kts | 257° |
| 2026-05-05 13:58 | 51.15025 | -0.19507 | 209 ft | 20 kts | 259° |
| 2026-05-05 13:58 | 51.14993 | -0.19734 | 205 ft | 22 kts | 257° |
| 2026-05-05 13:58 | 51.14958 | -0.19991 | 205 ft | 25 kts | 258° |
| 2026-05-05 13:58 | 51.14920 | -0.20261 | 205 ft | 23 kts | 257° |
| 2026-05-05 13:59 | 51.14859 | -0.20710 | 205 ft | 22 kts | 258° |
| 2026-05-05 13:59 | 51.14826 | -0.20951 | 215 ft | 22 kts | 257° |
| 2026-05-05 14:00 | 51.14763 | -0.21331 | 208 ft | 12 kts | 257° |
| 2026-05-05 14:00 | 51.14739 | -0.21400 | 211 ft | 10 kts | 210° |
| 2026-05-05 14:00 | 51.14659 | -0.21361 | 217 ft | 9 kts | 140° |
| 2026-05-05 14:00 | 51.14601 | -0.21324 | 205 ft | 8 kts | 166° |
| 2026-05-05 14:01 | 51.14546 | -0.21282 | 211 ft | 10 kts | 139° |
| 2026-05-05 14:01 | 51.14519 | -0.21185 | 208 ft | 10 kts | 87° |
| 2026-05-05 14:01 | 51.14548 | -0.20963 | 210 ft | 48 kts | 77° |
| 2026-05-05 14:01 | 51.14674 | -0.20060 | 209 ft | 114 kts | 77° |
| 2026-05-05 14:02 | 51.14884 | -0.18562 | 227 ft | 160 kts | 76° |
| 2026-05-05 14:02 | 51.15124 | -0.16852 | 973 ft | 156 kts | 76° |
| 2026-05-05 14:02 | 51.15346 | -0.15168 | 1807 ft | 157 kts | 76° |
| 2026-05-05 14:02 | 51.15570 | -0.13431 | 2453 ft | 165 kts | 75° |
| 2026-05-05 14:03 | 51.15820 | -0.11542 | 2888 ft | 183 kts | 76° |
| 2026-05-05 14:03 | 51.16106 | -0.09451 | 3258 ft | 206 kts | 75° |
| 2026-05-05 14:03 | 51.16454 | -0.07088 | 3674 ft | 231 kts | 75° |
| 2026-05-05 14:03 | 51.16812 | -0.04480 | 4234 ft | 251 kts | 77° |
| 2026-05-05 14:04 | 51.16923 | -0.01668 | 5082 ft | 259 kts | 89° |
| 2026-05-05 14:04 | 51.16876 | 0.01231 | 6020 ft | 264 kts | 90° |
| 2026-05-05 14:04 | 51.16800 | 0.04179 | 6884 ft | 269 kts | 91° |
| 2026-05-05 14:04 | 51.16701 | 0.07175 | 7765 ft | 273 kts | 92° |
| 2026-05-05 14:05 | 51.16602 | 0.10223 | 8626 ft | 279 kts | 91° |
| 2026-05-05 14:05 | 51.16541 | 0.13344 | 9468 ft | 285 kts | 91° |
| 2026-05-05 14:05 | 51.16499 | 0.16523 | 10416 ft | 289 kts | 90° |
| 2026-05-05 14:05 | 51.16501 | 0.19747 | 11239 ft | 292 kts | 89° |
| 2026-05-05 14:06 | 51.16524 | 0.22999 | 12094 ft | 295 kts | 89° |
| 2026-05-05 14:06 | 51.16540 | 0.25168 | 12679 ft | 296 kts | 89° |
| 2026-05-05 14:06 | 51.16560 | 0.28464 | 13564 ft | 299 kts | 89° |
| 2026-05-05 14:06 | 51.16575 | 0.31783 | 14350 ft | 301 kts | 89° |
| 2026-05-05 14:07 | 51.16587 | 0.35135 | 15061 ft | 305 kts | 89° |
| 2026-05-05 14:07 | 51.16593 | 0.38529 | 15770 ft | 308 kts | 89° |
| 2026-05-05 14:07 | 51.16593 | 0.41960 | 16454 ft | 312 kts | 90° |
| 2026-05-05 14:07 | 51.16592 | 0.45440 | 17143 ft | 316 kts | 90° |
| 2026-05-05 14:08 | 51.16593 | 0.48965 | 17815 ft | 320 kts | 90° |
| 2026-05-05 14:08 | 51.16595 | 0.52618 | 18012 ft | 340 kts | 90° |
| 2026-05-05 14:08 | 51.16596 | 0.56496 | 18198 ft | 358 kts | 90° |
| 2026-05-05 14:08 | 51.16595 | 0.60506 | 18635 ft | 365 kts | 90° |
| 2026-05-05 14:09 | 51.16591 | 0.64576 | 19154 ft | 369 kts | 90° |
| 2026-05-05 14:09 | 51.16586 | 0.68682 | 19686 ft | 372 kts | 90° |
| 2026-05-05 14:09 | 51.16577 | 0.72824 | 20223 ft | 375 kts | 91° |
| 2026-05-05 14:09 | 51.16564 | 0.76997 | 20751 ft | 378 kts | 91° |
| 2026-05-05 14:10 | 51.16549 | 0.81207 | 21193 ft | 381 kts | 91° |
| 2026-05-05 14:10 | 51.16535 | 0.85448 | 21719 ft | 384 kts | 91° |
| 2026-05-05 14:10 | 51.16519 | 0.89775 | 22242 ft | 387 kts | 92° |
| 2026-05-05 14:10 | 51.16502 | 0.94083 | 22756 ft | 390 kts | 92° |
| 2026-05-05 14:11 | 51.16485 | 0.98425 | 23267 ft | 393 kts | 92° |
| 2026-05-05 14:11 | 51.16467 | 1.02800 | 23724 ft | 397 kts | 92° |
| 2026-05-05 14:11 | 51.16451 | 1.07209 | 24137 ft | 399 kts | 92° |
| 2026-05-05 14:11 | 51.16431 | 1.11644 | 24552 ft | 402 kts | 92° |
| 2026-05-05 14:12 | 51.16406 | 1.16051 | 24963 ft | 404 kts | 92° |
| 2026-05-05 14:12 | 51.16375 | 1.20597 | 25387 ft | 406 kts | 92° |
| 2026-05-05 14:12 | 51.16342 | 1.25046 | 25792 ft | 408 kts | 92° |
| 2026-05-05 14:12 | 51.16304 | 1.29569 | 26194 ft | 410 kts | 92° |
| 2026-05-05 14:13 | 51.16266 | 1.34153 | 26589 ft | 413 kts | 93° |
| 2026-05-05 14:13 | 51.16193 | 1.38720 | 26967 ft | 415 kts | 94° |
| 2026-05-05 14:13 | 51.16029 | 1.43319 | 27369 ft | 417 kts | 96° |
| 2026-05-05 14:13 | 51.15803 | 1.47919 | 27797 ft | 417 kts | 97° |
| 2026-05-05 14:14 | 51.15546 | 1.52522 | 28207 ft | 419 kts | 97° |
| 2026-05-05 14:14 | 51.15399 | 1.55078 | 28418 ft | 420 kts | 97° |
| 2026-05-05 14:14 | 51.15135 | 1.59722 | 28793 ft | 422 kts | 97° |
| 2026-05-05 14:14 | 51.14883 | 1.64389 | 29132 ft | 425 kts | 97° |
| 2026-05-05 14:15 | 51.14642 | 1.69102 | 29479 ft | 427 kts | 97° |
| 2026-05-05 14:15 | 51.14407 | 1.73828 | 29818 ft | 430 kts | 97° |
| 2026-05-05 14:15 | 51.14171 | 1.78596 | 30137 ft | 433 kts | 97° |
| 2026-05-05 14:15 | 51.13935 | 1.83379 | 30425 ft | 435 kts | 97° |
| 2026-05-05 14:16 | 51.13692 | 1.88194 | 30705 ft | 437 kts | 97° |
| 2026-05-05 14:16 | 51.13442 | 1.93039 | 30973 ft | 440 kts | 97° |
| 2026-05-05 14:16 | 51.13187 | 1.97888 | 31238 ft | 442 kts | 97° |
| 2026-05-05 14:16 | 51.12930 | 2.02757 | 31580 ft | 442 kts | 97° |
| 2026-05-05 14:17 | 51.12671 | 2.07644 | 31996 ft | 442 kts | 97° |
| 2026-05-05 14:17 | 51.12412 | 2.12513 | 32403 ft | 441 kts | 97° |
| 2026-05-05 14:17 | 51.12150 | 2.17387 | 32813 ft | 441 kts | 97° |
| 2026-05-05 14:17 | 51.11887 | 2.22248 | 33234 ft | 440 kts | 97° |
| 2026-05-05 14:18 | 51.11620 | 2.27087 | 33666 ft | 439 kts | 97° |
| 2026-05-05 14:18 | 51.11353 | 2.31921 | 34066 ft | 438 kts | 97° |
| 2026-05-05 14:18 | 51.11086 | 2.36749 | 34406 ft | 438 kts | 97° |
| 2026-05-05 14:18 | 51.10819 | 2.41572 | 34726 ft | 438 kts | 97° |
| 2026-05-05 14:19 | 51.10554 | 2.46332 | 35028 ft | 438 kts | 97° |
| 2026-05-05 14:19 | 51.10282 | 2.51158 | 35327 ft | 438 kts | 97° |
| 2026-05-05 14:19 | 51.10005 | 2.55986 | 35606 ft | 438 kts | 97° |
| 2026-05-05 14:19 | 51.09711 | 2.60825 | 35883 ft | 438 kts | 100° |
| 2026-05-05 14:20 | 51.09090 | 2.65544 | 36148 ft | 435 kts | 109° |
| 2026-05-05 14:20 | 51.08014 | 2.70030 | 36412 ft | 433 kts | 118° |
| 2026-05-05 14:20 | 51.06700 | 2.74337 | 36659 ft | 433 kts | 118° |
| 2026-05-05 14:20 | 51.05383 | 2.78649 | 36866 ft | 434 kts | 118° |
| 2026-05-05 14:21 | 51.02761 | 2.87258 | 36912 ft | 431 kts | 118° |
| 2026-05-05 14:21 | 51.00155 | 2.95806 | 36905 ft | 430 kts | 118° |
| 2026-05-05 14:22 | 50.97544 | 3.04335 | 36915 ft | 430 kts | 118° |
| 2026-05-05 14:22 | 50.94924 | 3.12852 | 36903 ft | 429 kts | 118° |
| 2026-05-05 14:23 | 50.92299 | 3.21344 | 36894 ft | 429 kts | 119° |
| 2026-05-05 14:23 | 50.89672 | 3.29819 | 36891 ft | 428 kts | 119° |
| 2026-05-05 14:24 | 50.87093 | 3.38124 | 36887 ft | 428 kts | 119° |
| 2026-05-05 14:24 | 50.84468 | 3.46575 | 36885 ft | 428 kts | 119° |
| 2026-05-05 14:25 | 50.81832 | 3.55008 | 36881 ft | 427 kts | 119° |
| 2026-05-05 14:25 | 50.79189 | 3.63408 | 36881 ft | 427 kts | 119° |
| 2026-05-05 14:26 | 50.76542 | 3.71797 | 36880 ft | 426 kts | 119° |
| 2026-05-05 14:26 | 50.73898 | 3.80170 | 36879 ft | 426 kts | 119° |
| 2026-05-05 14:27 | 50.71245 | 3.88529 | 36880 ft | 426 kts | 120° |
| 2026-05-05 14:27 | 50.68589 | 3.96877 | 36884 ft | 425 kts | 120° |
| 2026-05-05 14:28 | 50.65927 | 4.05198 | 36888 ft | 425 kts | 120° |
| 2026-05-05 14:28 | 50.63320 | 4.13332 | 36886 ft | 424 kts | 120° |
| 2026-05-05 14:29 | 50.60672 | 4.21576 | 36890 ft | 424 kts | 120° |
| 2026-05-05 14:29 | 50.57988 | 4.29894 | 36892 ft | 424 kts | 120° |
| 2026-05-05 14:30 | 50.55334 | 4.38103 | 36897 ft | 423 kts | 120° |
| 2026-05-05 14:30 | 50.52660 | 4.46340 | 36898 ft | 423 kts | 120° |
| 2026-05-05 14:31 | 50.49980 | 4.54565 | 36894 ft | 423 kts | 120° |
| 2026-05-05 14:31 | 50.47303 | 4.62771 | 36891 ft | 422 kts | 120° |
| 2026-05-05 14:32 | 50.44617 | 4.70957 | 36887 ft | 422 kts | 120° |
| 2026-05-05 14:32 | 50.41931 | 4.79130 | 36885 ft | 422 kts | 120° |
| 2026-05-05 14:33 | 50.39238 | 4.87304 | 36877 ft | 422 kts | 120° |
| 2026-05-05 14:33 | 50.36529 | 4.95464 | 36873 ft | 422 kts | 120° |
| 2026-05-05 14:34 | 50.33819 | 5.03608 | 36866 ft | 422 kts | 120° |
| 2026-05-05 14:34 | 50.31106 | 5.11745 | 36865 ft | 422 kts | 120° |
| 2026-05-05 14:35 | 50.28388 | 5.19869 | 36862 ft | 421 kts | 120° |
| 2026-05-05 14:35 | 50.25673 | 5.27982 | 36859 ft | 421 kts | 121° |
| 2026-05-05 14:36 | 50.22949 | 5.36081 | 36854 ft | 421 kts | 121° |
| 2026-05-05 14:36 | 50.20222 | 5.44161 | 36858 ft | 421 kts | 121° |
| 2026-05-05 14:37 | 50.17489 | 5.52235 | 36851 ft | 420 kts | 121° |
| 2026-05-05 14:37 | 50.14754 | 5.60290 | 36844 ft | 420 kts | 121° |
| 2026-05-05 14:38 | 50.12010 | 5.68325 | 36842 ft | 420 kts | 121° |
| 2026-05-05 14:38 | 50.09259 | 5.76352 | 36853 ft | 421 kts | 121° |
| 2026-05-05 14:39 | 50.06525 | 5.84387 | 36851 ft | 419 kts | 120° |
| 2026-05-05 14:39 | 50.03934 | 5.92455 | 36849 ft | 419 kts | 119° |
| 2026-05-05 14:40 | 50.01374 | 6.00579 | 36843 ft | 418 kts | 119° |
| 2026-05-05 14:40 | 49.98781 | 6.08658 | 36836 ft | 417 kts | 120° |
| 2026-05-05 14:41 | 49.96177 | 6.16661 | 36831 ft | 417 kts | 120° |
| 2026-05-05 14:41 | 49.93553 | 6.24704 | 36825 ft | 417 kts | 120° |
| 2026-05-05 14:42 | 49.90936 | 6.32727 | 36817 ft | 417 kts | 120° |
| 2026-05-05 14:42 | 49.88316 | 6.40745 | 36813 ft | 417 kts | 120° |
| 2026-05-05 14:43 | 49.85689 | 6.48754 | 36811 ft | 417 kts | 120° |
| 2026-05-05 14:43 | 49.83056 | 6.56746 | 36809 ft | 417 kts | 120° |
| 2026-05-05 14:44 | 49.80415 | 6.64735 | 36809 ft | 417 kts | 120° |
| 2026-05-05 14:44 | 49.77770 | 6.72709 | 36808 ft | 417 kts | 121° |
| 2026-05-05 14:45 | 49.75115 | 6.80678 | 36810 ft | 417 kts | 121° |
| 2026-05-05 14:45 | 49.74110 | 6.83685 | 36812 ft | 417 kts | 121° |
| 2026-05-05 14:46 | 49.71702 | 6.89053 | 36831 ft | 413 kts | 126° |
| 2026-05-05 14:46 | 49.69062 | 6.97003 | 36828 ft | 418 kts | 116° |
| 2026-05-05 14:47 | 49.66785 | 7.05279 | 36828 ft | 418 kts | 117° |
| 2026-05-05 14:47 | 49.64269 | 7.13356 | 36831 ft | 417 kts | 121° |
| 2026-05-05 14:48 | 49.61548 | 7.21260 | 36828 ft | 417 kts | 122° |
| 2026-05-05 14:48 | 49.58805 | 7.29155 | 36827 ft | 418 kts | 121° |
| 2026-05-05 14:49 | 49.56098 | 7.37072 | 36824 ft | 418 kts | 121° |
| 2026-05-05 14:49 | 49.53411 | 7.44959 | 36824 ft | 419 kts | 121° |
| 2026-05-05 14:50 | 49.50698 | 7.52898 | 36823 ft | 419 kts | 121° |
| 2026-05-05 14:50 | 49.47985 | 7.60832 | 36822 ft | 419 kts | 121° |
| 2026-05-05 14:51 | 49.45255 | 7.68763 | 36826 ft | 420 kts | 121° |
| 2026-05-05 14:51 | 49.42514 | 7.76674 | 36827 ft | 420 kts | 122° |
| 2026-05-05 14:52 | 49.40213 | 7.83313 | 36828 ft | 420 kts | 122° |
| 2026-05-05 14:52 | 49.37477 | 7.91180 | 36834 ft | 420 kts | 122° |
| 2026-05-05 14:53 | 49.34721 | 7.99088 | 36836 ft | 420 kts | 122° |
| 2026-05-05 14:53 | 49.31968 | 8.06979 | 36840 ft | 420 kts | 122° |
| 2026-05-05 14:54 | 49.29195 | 8.14867 | 36847 ft | 420 kts | 122° |
| 2026-05-05 14:54 | 49.26424 | 8.22749 | 36846 ft | 420 kts | 122° |
| 2026-05-05 14:55 | 49.23649 | 8.30626 | 36855 ft | 420 kts | 122° |
| 2026-05-05 14:55 | 49.20866 | 8.38486 | 36848 ft | 421 kts | 122° |
| 2026-05-05 14:56 | 49.18075 | 8.46349 | 36852 ft | 421 kts | 122° |
| 2026-05-05 14:56 | 49.15277 | 8.54199 | 36847 ft | 420 kts | 122° |
| 2026-05-05 14:57 | 49.12481 | 8.62045 | 36847 ft | 420 kts | 122° |
| 2026-05-05 14:57 | 49.09606 | 8.69809 | 36843 ft | 419 kts | 125° |
| 2026-05-05 14:58 | 49.06429 | 8.77243 | 36843 ft | 418 kts | 128° |
| 2026-05-05 14:58 | 49.03153 | 8.84565 | 36838 ft | 418 kts | 128° |
| 2026-05-05 14:59 | 48.99919 | 8.91931 | 36846 ft | 418 kts | 127° |
| 2026-05-05 14:59 | 48.96720 | 8.99330 | 36828 ft | 418 kts | 127° |
| 2026-05-05 15:00 | 48.94061 | 9.05468 | 36823 ft | 418 kts | 127° |
| 2026-05-05 15:00 | 48.90303 | 9.14091 | 36824 ft | 419 kts | 127° |
| 2026-05-05 15:01 | 48.87075 | 9.21460 | 36827 ft | 419 kts | 127° |
| 2026-05-05 15:01 | 48.83844 | 9.28831 | 36819 ft | 419 kts | 127° |
| 2026-05-05 15:02 | 48.80612 | 9.36202 | 36815 ft | 419 kts | 128° |
| 2026-05-05 15:02 | 48.77392 | 9.43518 | 36815 ft | 420 kts | 128° |
| 2026-05-05 15:03 | 48.74138 | 9.50879 | 36833 ft | 421 kts | 128° |
| 2026-05-05 15:03 | 48.70877 | 9.58238 | 36837 ft | 421 kts | 128° |
| 2026-05-05 15:04 | 48.67608 | 9.65576 | 36836 ft | 421 kts | 128° |
| 2026-05-05 15:04 | 48.64459 | 9.73071 | 36839 ft | 423 kts | 124° |
| 2026-05-05 15:05 | 48.60054 | 9.84652 | 36840 ft | 424 kts | 124° |
| 2026-05-05 15:06 | 48.57076 | 9.92329 | 36839 ft | 423 kts | 125° |
| 2026-05-05 15:06 | 48.54047 | 9.99952 | 36838 ft | 423 kts | 125° |
| 2026-05-05 15:07 | 48.51004 | 10.07565 | 36841 ft | 424 kts | 125° |
| 2026-05-05 15:07 | 48.47963 | 10.15193 | 36838 ft | 425 kts | 125° |
| 2026-05-05 15:08 | 48.44924 | 10.22820 | 36832 ft | 425 kts | 125° |
| 2026-05-05 15:08 | 48.42881 | 10.27934 | 36833 ft | 426 kts | 125° |
| 2026-05-05 15:09 | 48.40583 | 10.33687 | 36834 ft | 426 kts | 125° |
| 2026-05-05 15:09 | 48.37521 | 10.41320 | 36834 ft | 426 kts | 126° |
| 2026-05-05 15:10 | 48.34445 | 10.48947 | 36826 ft | 426 kts | 126° |
| 2026-05-05 15:10 | 48.31362 | 10.56557 | 36834 ft | 427 kts | 126° |
| 2026-05-05 15:11 | 48.28270 | 10.64174 | 36821 ft | 427 kts | 126° |
| 2026-05-05 15:11 | 48.25175 | 10.71797 | 36825 ft | 428 kts | 126° |
| 2026-05-05 15:12 | 48.22071 | 10.79424 | 36819 ft | 429 kts | 126° |
| 2026-05-05 15:12 | 48.18949 | 10.87051 | 36819 ft | 429 kts | 126° |
| 2026-05-05 15:13 | 48.15849 | 10.94628 | 36822 ft | 429 kts | 126° |
| 2026-05-05 15:13 | 48.12724 | 11.02247 | 36812 ft | 429 kts | 126° |
| 2026-05-05 15:14 | 48.09589 | 11.09852 | 36811 ft | 430 kts | 126° |
| 2026-05-05 15:14 | 48.06435 | 11.17466 | 36814 ft | 431 kts | 126° |
| 2026-05-05 15:15 | 48.03281 | 11.25086 | 36814 ft | 431 kts | 126° |
| 2026-05-05 15:15 | 48.00112 | 11.32696 | 36812 ft | 431 kts | 126° |
| 2026-05-05 15:16 | 47.96934 | 11.40296 | 36811 ft | 432 kts | 126° |
| 2026-05-05 15:16 | 47.93755 | 11.47906 | 36808 ft | 433 kts | 126° |
| 2026-05-05 15:17 | 47.90593 | 11.55463 | 36799 ft | 434 kts | 126° |
| 2026-05-05 15:17 | 47.87402 | 11.63056 | 36793 ft | 434 kts | 126° |
| 2026-05-05 15:18 | 47.84188 | 11.70688 | 36781 ft | 435 kts | 126° |
| 2026-05-05 15:18 | 47.81530 | 11.76981 | 36775 ft | 436 kts | 126° |
| 2026-05-05 15:19 | 47.78296 | 11.84608 | 36774 ft | 436 kts | 126° |
| 2026-05-05 15:19 | 47.75057 | 11.92221 | 36769 ft | 436 kts | 126° |
| 2026-05-05 15:20 | 47.71810 | 11.99844 | 36761 ft | 436 kts | 126° |
| 2026-05-05 15:20 | 47.68562 | 12.07466 | 36765 ft | 437 kts | 126° |
| 2026-05-05 15:21 | 47.65301 | 12.15084 | 36766 ft | 438 kts | 126° |
| 2026-05-05 15:21 | 47.62021 | 12.22703 | 36765 ft | 439 kts | 126° |
| 2026-05-05 15:22 | 47.58778 | 12.30217 | 36773 ft | 440 kts | 126° |
| 2026-05-05 15:22 | 47.55315 | 12.37759 | 36772 ft | 436 kts | 135° |
| 2026-05-05 15:23 | 47.51114 | 12.44158 | 36775 ft | 433 kts | 139° |
| 2026-05-05 15:23 | 47.46876 | 12.50490 | 36782 ft | 433 kts | 139° |
| 2026-05-05 15:24 | 47.42642 | 12.56820 | 36781 ft | 434 kts | 139° |
| 2026-05-05 15:24 | 47.38403 | 12.63144 | 36801 ft | 435 kts | 139° |
| 2026-05-05 15:25 | 47.34125 | 12.69504 | 36810 ft | 435 kts | 139° |
| 2026-05-05 15:25 | 47.29857 | 12.75837 | 36823 ft | 436 kts | 139° |
| 2026-05-05 15:26 | 47.25572 | 12.82167 | 36842 ft | 436 kts | 139° |
| 2026-05-05 15:26 | 47.21283 | 12.88498 | 36844 ft | 437 kts | 139° |
| 2026-05-05 15:27 | 47.17022 | 12.94775 | 36861 ft | 436 kts | 139° |
| 2026-05-05 15:27 | 47.12689 | 13.01118 | 36873 ft | 437 kts | 139° |
| 2026-05-05 15:28 | 47.08413 | 13.07377 | 36883 ft | 437 kts | 139° |
| 2026-05-05 15:28 | 47.04089 | 13.13708 | 36907 ft | 438 kts | 139° |
| 2026-05-05 15:29 | 46.99763 | 13.20011 | 36924 ft | 439 kts | 139° |
| 2026-05-05 15:29 | 46.95429 | 13.26306 | 36934 ft | 438 kts | 139° |
| 2026-05-05 15:30 | 46.91100 | 13.32583 | 36947 ft | 438 kts | 139° |
| 2026-05-05 15:30 | 46.86767 | 13.38848 | 36952 ft | 438 kts | 139° |
| 2026-05-05 15:31 | 46.82430 | 13.45091 | 36957 ft | 438 kts | 139° |
| 2026-05-05 15:31 | 46.78094 | 13.51329 | 36955 ft | 437 kts | 140° |
| 2026-05-05 15:32 | 46.73457 | 13.56990 | 36951 ft | 435 kts | 144° |
| 2026-05-05 15:32 | 46.68776 | 13.62577 | 36956 ft | 435 kts | 144° |
| 2026-05-05 15:33 | 46.64088 | 13.68161 | 36953 ft | 435 kts | 144° |
| 2026-05-05 15:33 | 46.59393 | 13.73746 | 36955 ft | 436 kts | 144° |
| 2026-05-05 15:34 | 46.54683 | 13.79315 | 36961 ft | 437 kts | 144° |
| 2026-05-05 15:34 | 46.49975 | 13.84887 | 36969 ft | 437 kts | 144° |
| 2026-05-05 15:35 | 46.45288 | 13.90415 | 36974 ft | 437 kts | 144° |
| 2026-05-05 15:35 | 46.40536 | 13.96003 | 36979 ft | 437 kts | 144° |
| 2026-05-05 15:36 | 46.35812 | 14.01550 | 36989 ft | 437 kts | 144° |
| 2026-05-05 15:36 | 46.31123 | 14.07036 | 36991 ft | 437 kts | 144° |
| 2026-05-05 15:37 | 46.26395 | 14.12561 | 36986 ft | 437 kts | 144° |
| 2026-05-05 15:37 | 46.21657 | 14.18091 | 36986 ft | 438 kts | 144° |
| 2026-05-05 15:38 | 46.16916 | 14.23617 | 36987 ft | 439 kts | 144° |
| 2026-05-05 15:38 | 46.12935 | 14.28242 | 36987 ft | 439 kts | 144° |
| 2026-05-05 15:39 | 46.08168 | 14.33757 | 36990 ft | 439 kts | 144° |
| 2026-05-05 15:39 | 46.03403 | 14.39261 | 36996 ft | 440 kts | 144° |
| 2026-05-05 15:40 | 45.98628 | 14.44778 | 36996 ft | 440 kts | 144° |
| 2026-05-05 15:40 | 45.93874 | 14.50242 | 37001 ft | 440 kts | 145° |
| 2026-05-05 15:41 | 45.89084 | 14.55731 | 37003 ft | 441 kts | 144° |
| 2026-05-05 15:41 | 45.84294 | 14.61235 | 37001 ft | 441 kts | 145° |
| 2026-05-05 15:42 | 45.79498 | 14.66720 | 37003 ft | 441 kts | 145° |
| 2026-05-05 15:42 | 45.74692 | 14.72195 | 36999 ft | 442 kts | 145° |
| 2026-05-05 15:43 | 45.69880 | 14.77657 | 36996 ft | 442 kts | 145° |
| 2026-05-05 15:43 | 45.65060 | 14.83129 | 36994 ft | 442 kts | 145° |
| 2026-05-05 15:44 | 45.60241 | 14.88593 | 36993 ft | 442 kts | 145° |
| 2026-05-05 15:44 | 45.55421 | 14.94039 | 37000 ft | 443 kts | 145° |
| 2026-05-05 15:45 | 45.50580 | 14.99494 | 36996 ft | 443 kts | 145° |
| 2026-05-05 15:45 | 45.45680 | 15.04828 | 36997 ft | 443 kts | 147° |
| 2026-05-05 15:46 | 45.40677 | 15.09956 | 36998 ft | 443 kts | 148° |
| 2026-05-05 15:46 | 45.35657 | 15.15052 | 36999 ft | 443 kts | 148° |
| 2026-05-05 15:47 | 45.30657 | 15.20195 | 36998 ft | 444 kts | 147° |
| 2026-05-05 15:47 | 45.25666 | 15.25355 | 36992 ft | 444 kts | 147° |
| 2026-05-05 15:48 | 45.20660 | 15.30505 | 36998 ft | 444 kts | 147° |
| 2026-05-05 15:48 | 45.15644 | 15.35635 | 36998 ft | 445 kts | 148° |
| 2026-05-05 15:49 | 45.10623 | 15.40764 | 36998 ft | 445 kts | 148° |
| 2026-05-05 15:49 | 45.05600 | 15.45891 | 36998 ft | 445 kts | 148° |
| 2026-05-05 15:50 | 45.00572 | 15.51017 | 37007 ft | 446 kts | 148° |
| 2026-05-05 15:50 | 44.95538 | 15.56139 | 37008 ft | 446 kts | 148° |
| 2026-05-05 15:51 | 44.90499 | 15.61252 | 37016 ft | 446 kts | 148° |
| 2026-05-05 15:51 | 44.85450 | 15.66348 | 37017 ft | 446 kts | 148° |
| 2026-05-05 15:52 | 44.80404 | 15.71435 | 37021 ft | 447 kts | 148° |
| 2026-05-05 15:52 | 44.75348 | 15.76534 | 37024 ft | 447 kts | 148° |
| 2026-05-05 15:53 | 44.70285 | 15.81631 | 37029 ft | 448 kts | 148° |
| 2026-05-05 15:53 | 44.65218 | 15.86722 | 37030 ft | 447 kts | 148° |
| 2026-05-05 15:54 | 44.60148 | 15.91785 | 37033 ft | 447 kts | 148° |
| 2026-05-05 15:54 | 44.55072 | 15.96850 | 37032 ft | 448 kts | 148° |
| 2026-05-05 15:55 | 44.49991 | 16.01910 | 37038 ft | 448 kts | 148° |
| 2026-05-05 15:55 | 44.44905 | 16.06965 | 37028 ft | 448 kts | 148° |
| 2026-05-05 15:56 | 44.39817 | 16.12016 | 37037 ft | 449 kts | 148° |
| 2026-05-05 15:56 | 44.34718 | 16.17068 | 37049 ft | 449 kts | 148° |
| 2026-05-05 15:57 | 44.29613 | 16.22107 | 37055 ft | 450 kts | 148° |
| 2026-05-05 15:57 | 44.24511 | 16.27133 | 37051 ft | 449 kts | 148° |
| 2026-05-05 15:58 | 44.19402 | 16.32163 | 37059 ft | 450 kts | 148° |
| 2026-05-05 15:58 | 44.14285 | 16.37191 | 37066 ft | 450 kts | 148° |
| 2026-05-05 15:59 | 44.09161 | 16.42204 | 37063 ft | 450 kts | 148° |
| 2026-05-05 15:59 | 44.04030 | 16.47212 | 37075 ft | 451 kts | 148° |
| 2026-05-05 16:00 | 43.98942 | 16.52322 | 37083 ft | 452 kts | 146° |
| 2026-05-05 16:00 | 43.93955 | 16.57655 | 37084 ft | 452 kts | 145° |
| 2026-05-05 16:01 | 43.88981 | 16.63010 | 37090 ft | 453 kts | 146° |
| 2026-05-05 16:01 | 43.83976 | 16.68295 | 37083 ft | 453 kts | 146° |
| 2026-05-05 16:02 | 43.78939 | 16.73538 | 37077 ft | 453 kts | 147° |
| 2026-05-05 16:02 | 43.73899 | 16.78787 | 37077 ft | 454 kts | 146° |
| 2026-05-05 16:03 | 43.68862 | 16.84059 | 37079 ft | 454 kts | 146° |
| 2026-05-05 16:03 | 43.63818 | 16.89321 | 37069 ft | 454 kts | 147° |
| 2026-05-05 16:04 | 43.58764 | 16.94571 | 37070 ft | 455 kts | 147° |
| 2026-05-05 16:04 | 43.53707 | 16.99815 | 37069 ft | 455 kts | 147° |
| 2026-05-05 16:05 | 43.48643 | 17.05053 | 37064 ft | 455 kts | 147° |
| 2026-05-05 16:05 | 43.43577 | 17.10288 | 37067 ft | 455 kts | 147° |
| 2026-05-05 16:06 | 43.38512 | 17.15506 | 37067 ft | 455 kts | 147° |
| 2026-05-05 16:06 | 43.33434 | 17.20725 | 37068 ft | 456 kts | 147° |
| 2026-05-05 16:07 | 43.28349 | 17.25931 | 37071 ft | 456 kts | 147° |
| 2026-05-05 16:07 | 43.23265 | 17.31141 | 37069 ft | 456 kts | 147° |
| 2026-05-05 16:08 | 43.18175 | 17.36353 | 37075 ft | 457 kts | 147° |
| 2026-05-05 16:08 | 43.13077 | 17.41552 | 37076 ft | 457 kts | 147° |
| 2026-05-05 16:09 | 43.07973 | 17.46735 | 37081 ft | 457 kts | 147° |
| 2026-05-05 16:09 | 43.02866 | 17.51913 | 37079 ft | 457 kts | 147° |
| 2026-05-05 16:10 | 42.97755 | 17.57087 | 37078 ft | 457 kts | 147° |
| 2026-05-05 16:10 | 42.92640 | 17.62257 | 37077 ft | 458 kts | 147° |
| 2026-05-05 16:11 | 42.87520 | 17.67423 | 37085 ft | 458 kts | 147° |
| 2026-05-05 16:12 | 42.77337 | 17.77676 | 37080 ft | 458 kts | 147° |
| 2026-05-05 16:13 | 42.64495 | 17.90532 | 37091 ft | 459 kts | 147° |
| 2026-05-05 16:13 | 42.59344 | 17.95664 | 37093 ft | 459 kts | 147° |
| 2026-05-05 16:14 | 42.49029 | 18.05927 | 37094 ft | 460 kts | 147° |
| 2026-05-05 16:15 | 42.38683 | 18.16162 | 37100 ft | 461 kts | 147° |
| 2026-05-05 16:16 | 42.28319 | 18.26379 | 37088 ft | 461 kts | 147° |
| 2026-05-05 16:17 | 42.20523 | 18.34016 | 37081 ft | 462 kts | 147° |
| 2026-05-05 16:18 | 42.13604 | 18.40795 | 37075 ft | 462 kts | 147° |
| 2026-05-05 16:19 | 42.05789 | 18.48430 | 37073 ft | 463 kts | 147° |
| 2026-05-05 16:19 | 41.97986 | 18.56116 | 37074 ft | 464 kts | 145° |
| 2026-05-05 16:20 | 41.87804 | 18.66836 | 37067 ft | 465 kts | 144° |
| 2026-05-05 16:22 | 41.74976 | 18.80119 | 37072 ft | 467 kts | 145° |
| 2026-05-05 16:23 | 41.64673 | 18.90721 | 37072 ft | 468 kts | 144° |
| 2026-05-05 16:23 | 41.56916 | 18.98670 | 37081 ft | 469 kts | 144° |
| 2026-05-05 16:24 | 41.51735 | 19.03969 | 37089 ft | 469 kts | 144° |
| 2026-05-05 16:25 | 41.43593 | 19.11081 | 37090 ft | 463 kts | 161° |
| 2026-05-05 16:25 | 41.34505 | 19.15529 | 37074 ft | 462 kts | 163° |
| 2026-05-05 16:26 | 41.22409 | 19.21432 | 37086 ft | 463 kts | 163° |
| 2026-05-05 16:27 | 41.16346 | 19.24368 | 37074 ft | 464 kts | 163° |
| 2026-05-05 16:27 | 41.10298 | 19.27301 | 36933 ft | 473 kts | 163° |
| 2026-05-05 16:28 | 41.07193 | 19.28808 | 36657 ft | 477 kts | 163° |
| 2026-05-05 16:28 | 41.04036 | 19.30342 | 36389 ft | 477 kts | 163° |
| 2026-05-05 16:28 | 41.00966 | 19.31832 | 36136 ft | 476 kts | 163° |
| 2026-05-05 16:28 | 40.97828 | 19.33351 | 35876 ft | 474 kts | 163° |
| 2026-05-05 16:29 | 40.94724 | 19.34847 | 35626 ft | 473 kts | 163° |
| 2026-05-05 16:29 | 40.91643 | 19.36327 | 35379 ft | 472 kts | 163° |
| 2026-05-05 16:29 | 40.88598 | 19.37785 | 35082 ft | 469 kts | 164° |
| 2026-05-05 16:29 | 40.85497 | 19.39272 | 34498 ft | 469 kts | 164° |
| 2026-05-05 16:30 | 40.82432 | 19.40742 | 33897 ft | 468 kts | 164° |
| 2026-05-05 16:30 | 40.79375 | 19.42211 | 33316 ft | 466 kts | 164° |
| 2026-05-05 16:30 | 40.76335 | 19.43673 | 32748 ft | 464 kts | 164° |
| 2026-05-05 16:30 | 40.73309 | 19.45128 | 32190 ft | 462 kts | 163° |
| 2026-05-05 16:31 | 40.70296 | 19.46574 | 31648 ft | 460 kts | 163° |
| 2026-05-05 16:31 | 40.67293 | 19.48011 | 31093 ft | 458 kts | 163° |
| 2026-05-05 16:31 | 40.64302 | 19.49440 | 30561 ft | 456 kts | 163° |
| 2026-05-05 16:31 | 40.61321 | 19.50857 | 30012 ft | 454 kts | 163° |
| 2026-05-05 16:32 | 40.58363 | 19.52264 | 29532 ft | 449 kts | 163° |
| 2026-05-05 16:32 | 40.55439 | 19.53658 | 29060 ft | 445 kts | 163° |
| 2026-05-05 16:32 | 40.52585 | 19.55015 | 28608 ft | 439 kts | 163° |
| 2026-05-05 16:32 | 40.49725 | 19.56369 | 28152 ft | 435 kts | 163° |
| 2026-05-05 16:33 | 40.46859 | 19.57723 | 27678 ft | 430 kts | 162° |
| 2026-05-05 16:33 | 40.44053 | 19.59048 | 27228 ft | 427 kts | 162° |
| 2026-05-05 16:33 | 40.41264 | 19.60350 | 26654 ft | 424 kts | 165° |
| 2026-05-05 16:33 | 40.38381 | 19.61069 | 25583 ft | 433 kts | 178° |
| 2026-05-05 16:34 | 40.35387 | 19.61440 | 25135 ft | 428 kts | 177° |
| 2026-05-05 16:34 | 40.32443 | 19.61798 | 24735 ft | 422 kts | 177° |
| 2026-05-05 16:34 | 40.29497 | 19.62160 | 24286 ft | 418 kts | 177° |
| 2026-05-05 16:34 | 40.26657 | 19.62516 | 23833 ft | 414 kts | 177° |
| 2026-05-05 16:35 | 40.23803 | 19.62877 | 23279 ft | 411 kts | 177° |
| 2026-05-05 16:35 | 40.20969 | 19.63235 | 22750 ft | 408 kts | 177° |
| 2026-05-05 16:35 | 40.18155 | 19.63590 | 22273 ft | 404 kts | 176° |
| 2026-05-05 16:35 | 40.15365 | 19.63941 | 21799 ft | 401 kts | 177° |
| 2026-05-05 16:36 | 40.12562 | 19.64291 | 21347 ft | 398 kts | 177° |
| 2026-05-05 16:36 | 40.09812 | 19.64630 | 20882 ft | 395 kts | 176° |
| 2026-05-05 16:36 | 40.07082 | 19.64970 | 20440 ft | 393 kts | 176° |
| 2026-05-05 16:36 | 40.04408 | 19.65305 | 20018 ft | 390 kts | 176° |
| 2026-05-05 16:37 | 40.01687 | 19.65648 | 19501 ft | 384 kts | 176° |
| 2026-05-05 16:37 | 39.99074 | 19.65974 | 18753 ft | 381 kts | 176° |
| 2026-05-05 16:37 | 39.96571 | 19.66286 | 18007 ft | 377 kts | 176° |
| 2026-05-05 16:37 | 39.93978 | 19.66610 | 17217 ft | 372 kts | 176° |
| 2026-05-05 16:38 | 39.91421 | 19.66930 | 16469 ft | 367 kts | 176° |
| 2026-05-05 16:38 | 39.88896 | 19.67245 | 15743 ft | 362 kts | 175° |
| 2026-05-05 16:38 | 39.86376 | 19.67560 | 15035 ft | 357 kts | 175° |
| 2026-05-05 16:38 | 39.83961 | 19.67860 | 14509 ft | 348 kts | 175° |
| 2026-05-05 16:39 | 39.81589 | 19.68154 | 14102 ft | 337 kts | 175° |
| 2026-05-05 16:39 | 39.79290 | 19.68440 | 13678 ft | 327 kts | 175° |
| 2026-05-05 16:39 | 39.77063 | 19.68721 | 13281 ft | 316 kts | 175° |
| 2026-05-05 16:39 | 39.74877 | 19.68995 | 12888 ft | 308 kts | 175° |
| 2026-05-05 16:40 | 39.72736 | 19.69257 | 12506 ft | 310 kts | 175° |
| 2026-05-05 16:40 | 39.70616 | 19.69516 | 12118 ft | 311 kts | 175° |
| 2026-05-05 16:40 | 39.68459 | 19.69778 | 11718 ft | 312 kts | 175° |
| 2026-05-05 16:40 | 39.66300 | 19.70044 | 11326 ft | 312 kts | 175° |
| 2026-05-05 16:41 | 39.64134 | 19.70313 | 10910 ft | 313 kts | 174° |
| 2026-05-05 16:41 | 39.61966 | 19.70586 | 10498 ft | 313 kts | 174° |
| 2026-05-05 16:41 | 39.59799 | 19.70856 | 10083 ft | 313 kts | 174° |
| 2026-05-05 16:41 | 39.57652 | 19.71121 | 9819 ft | 307 kts | 174° |
| 2026-05-05 16:42 | 39.55543 | 19.71381 | 9360 ft | 303 kts | 174° |
| 2026-05-05 16:42 | 39.53441 | 19.71641 | 8837 ft | 301 kts | 174° |
| 2026-05-05 16:42 | 39.51376 | 19.71893 | 8352 ft | 297 kts | 174° |
| 2026-05-05 16:42 | 39.49341 | 19.72141 | 7894 ft | 292 kts | 174° |
| 2026-05-05 16:43 | 39.47337 | 19.72386 | 7460 ft | 286 kts | 174° |
| 2026-05-05 16:43 | 39.45374 | 19.72627 | 7017 ft | 281 kts | 174° |
| 2026-05-05 16:43 | 39.43446 | 19.72870 | 6589 ft | 276 kts | 172° |
| 2026-05-05 16:43 | 39.41666 | 19.73643 | 6135 ft | 268 kts | 146° |
| 2026-05-05 16:44 | 39.40374 | 19.75308 | 5692 ft | 261 kts | 119° |
| 2026-05-05 16:44 | 39.39792 | 19.77482 | 5179 ft | 257 kts | 93° |
| 2026-05-05 16:44 | 39.39794 | 19.79769 | 4767 ft | 250 kts | 87° |
| 2026-05-05 16:44 | 39.39830 | 19.81971 | 4530 ft | 239 kts | 88° |
| 2026-05-05 16:45 | 39.39861 | 19.84069 | 4325 ft | 228 kts | 88° |
| 2026-05-05 16:45 | 39.39890 | 19.86077 | 4126 ft | 220 kts | 88° |
| 2026-05-05 16:45 | 39.40035 | 19.88024 | 3922 ft | 217 kts | 76° |
| 2026-05-05 16:45 | 39.40455 | 19.89889 | 3735 ft | 215 kts | 72° |
| 2026-05-05 16:46 | 39.40877 | 19.91732 | 3545 ft | 212 kts | 72° |
| 2026-05-05 16:46 | 39.41289 | 19.93541 | 3381 ft | 208 kts | 72° |
| 2026-05-05 16:46 | 39.41698 | 19.95315 | 3191 ft | 204 kts | 69° |
| 2026-05-05 16:46 | 39.42499 | 19.96752 | 3022 ft | 197 kts | 31° |
| 2026-05-05 16:47 | 39.43777 | 19.97199 | 2929 ft | 192 kts | 353° |
| 2026-05-05 16:47 | 39.45000 | 19.96587 | 2901 ft | 190 kts | 330° |
| 2026-05-05 16:47 | 39.46258 | 19.95938 | 2678 ft | 193 kts | 343° |
| 2026-05-05 16:47 | 39.47530 | 19.95515 | 2405 ft | 190 kts | 345° |
| 2026-05-05 16:48 | 39.48805 | 19.95123 | 2127 ft | 186 kts | 345° |
| 2026-05-05 16:48 | 39.50032 | 19.94733 | 1871 ft | 177 kts | 343° |
| 2026-05-05 16:48 | 39.51184 | 19.94353 | 1643 ft | 164 kts | 343° |
| 2026-05-05 16:48 | 39.52246 | 19.93989 | 1430 ft | 152 kts | 342° |
| 2026-05-05 16:49 | 39.53228 | 19.93645 | 1265 ft | 142 kts | 342° |
| 2026-05-05 16:49 | 39.54163 | 19.93311 | 1049 ft | 138 kts | 341° |
| 2026-05-05 16:49 | 39.55078 | 19.92972 | 860 ft | 136 kts | 340° |
| 2026-05-05 16:49 | 39.55987 | 19.92612 | 706 ft | 137 kts | 340° |
| 2026-05-05 16:50 | 39.56894 | 19.92236 | 527 ft | 137 kts | 340° |
| 2026-05-05 16:50 | 39.57797 | 19.91865 | 379 ft | 136 kts | 342° |
| 2026-05-05 16:50 | 39.58728 | 19.91599 | 179 ft | 137 kts | 345° |
| 2026-05-05 16:50 | 39.59658 | 19.91353 | 23 ft | 130 kts | 347° |
| 2026-05-05 16:51 | 39.60301 | 19.91185 | 22 ft | 52 kts | 349° |
| 2026-05-05 16:51 | 39.60523 | 19.91161 | 19 ft | 21 kts | 17° |
| 2026-05-05 16:51 | 39.60589 | 19.91210 | 20 ft | 10 kts | 44° |
| 2026-05-05 16:51 | 39.60603 | 19.91227 | 19 ft | 0 kts | 43° |
| 2026-05-05 16:52 | 39.60604 | 19.91229 | 19 ft | 0 kts | 43° |
| 2026-05-05 16:52 | 39.60609 | 19.91231 | 19 ft | 2 kts | 27° |
| 2026-05-05 16:52 | 39.60621 | 19.91234 | 19 ft | 2 kts | 6° |
| 2026-05-05 16:53 | 39.60653 | 19.91226 | 18 ft | 5 kts | 349° |
| 2026-05-05 16:53 | 39.60678 | 19.91224 | 20 ft | 0 kts | 6° |
| 2026-05-05 16:54 | 39.60681 | 19.91228 | 18 ft | 2 kts | 35° |
| 2026-05-05 16:54 | 39.60691 | 19.91258 | 18 ft | 4 kts | 76° |
| 2026-05-05 16:55 | 39.60696 | 19.91293 | 18 ft | 4 kts | 81° |
| 2026-05-05 16:55 | 39.60701 | 19.91323 | 19 ft | 3 kts | 76° |
| 2026-05-05 16:55 | 39.60705 | 19.91348 | 19 ft | 2 kts | 78° |
| 2026-05-05 16:55 | 39.60707 | 19.91358 | 19 ft | 0 kts | 78° |